createdAt,value
2019-01-25T00:04:55.388Z,27.63
2019-01-25T00:09:50.098Z,26.63
2019-01-25T00:14:45.344Z,30.63
2019-01-25T00:19:39.246Z,39.27
2019-01-25T00:24:33.881Z,30.30
2019-01-25T00:29:29.517Z,30.10
2019-01-25T00:34:24.851Z,30.70
2019-01-25T00:39:19.676Z,29.53
2019-01-25T00:44:13.967Z,29.50
2019-01-25T00:49:07.916Z,29.90
2019-01-25T00:54:02.257Z,31.60
2019-01-25T00:58:56.962Z,31.63
2019-01-25T01:03:51.978Z,30.70
2019-01-25T01:08:49.459Z,32.07
2019-01-25T01:13:43.430Z,31.27
2019-01-25T01:18:37.854Z,29.97
2019-01-25T01:23:31.805Z,30.27
2019-01-25T01:28:26.191Z,29.13
2019-01-25T01:33:20.994Z,30.87
2019-01-25T01:38:17.293Z,29.37
2019-01-25T01:43:12.493Z,32.23
2019-01-25T01:48:06.818Z,29.70
2019-01-25T01:53:01.121Z,30.30
2019-01-25T01:57:56.891Z,29.60
2019-01-25T02:02:52.271Z,30.63
2019-01-25T02:07:46.572Z,30.40
2019-01-25T02:12:41.184Z,31.73
2019-01-25T02:17:35.814Z,29.13
2019-01-25T02:22:30.396Z,31.43
2019-01-25T02:27:24.691Z,30.80
2019-01-25T02:32:18.992Z,40.23
2019-01-25T02:37:13.413Z,34.03
2019-01-25T02:42:07.897Z,33.27
2019-01-25T02:47:03.344Z,31.27
2019-01-25T02:51:57.133Z,29.80
2019-01-25T02:56:51.316Z,28.83
2019-01-25T03:01:45.873Z,31.53
2019-01-25T03:06:40.638Z,29.37
2019-01-25T03:11:35.187Z,28.97
2019-01-25T03:16:30.998Z,28.67
2019-01-25T03:21:25.907Z,28.23
2019-01-25T03:26:20.412Z,29.97
2019-01-25T03:31:14.532Z,30.63
2019-01-25T03:36:09.085Z,30.37
2019-01-25T03:41:05.023Z,31.80
2019-01-25T03:45:59.418Z,32.37
2019-01-25T03:50:53.614Z,31.23
2019-01-25T03:55:49.758Z,31.10
2019-01-25T04:00:43.426Z,32.73
2019-01-25T04:05:37.909Z,32.50
2019-01-25T04:10:32.950Z,30.73
2019-01-25T04:15:32.655Z,32.73
2019-01-25T04:20:32.652Z,32.93
2019-01-25T04:25:27.620Z,33.27
2019-01-25T04:30:24.943Z,35.37
2019-01-25T04:35:19.525Z,33.37
2019-01-25T04:40:19.734Z,31.67
2019-01-25T04:45:16.302Z,31.70
2019-01-25T04:50:19.366Z,33.83
2019-01-25T04:55:17.100Z,34.97
2019-01-25T05:00:15.072Z,34.00
2019-01-25T05:05:10.324Z,31.83
2019-01-25T05:10:08.097Z,33.90
2019-01-25T05:15:02.713Z,35.33
2019-01-25T05:20:01.327Z,35.77
2019-01-25T05:25:04.871Z,35.10
2019-01-25T05:30:01.395Z,35.03
2019-01-25T05:34:56.687Z,43.93
2019-01-25T05:39:57.165Z,40.27
2019-01-25T05:44:51.738Z,39.23
2019-01-25T05:49:46.328Z,39.57
2019-01-25T05:54:40.527Z,39.10
2019-01-25T05:59:39.228Z,35.40
2019-01-25T06:04:37.301Z,38.10
2019-01-25T06:09:31.828Z,37.20
2019-01-25T06:14:27.423Z,39.47
2019-01-25T06:19:24.513Z,38.27
2019-01-25T06:24:19.387Z,37.10
2019-01-25T06:29:19.599Z,37.30
2019-01-25T06:34:16.302Z,40.60
2019-01-25T06:39:12.471Z,37.50
2019-01-25T06:44:08.935Z,36.93
2019-01-25T06:49:06.503Z,37.57
2019-01-25T06:54:02.108Z,39.03
2019-01-25T06:58:58.376Z,40.67
2019-01-25T07:03:53.900Z,38.37
2019-01-25T07:08:51.265Z,38.20
2019-01-25T07:13:45.898Z,42.90
2019-01-25T07:18:43.928Z,43.43
2019-01-25T07:23:39.749Z,40.20
2019-01-25T07:28:34.644Z,41.37
2019-01-25T07:33:30.261Z,39.00
2019-01-25T07:38:24.763Z,39.40
2019-01-25T07:43:19.553Z,41.07
2019-01-25T07:48:14.299Z,39.87
2019-01-25T07:53:10.506Z,39.20
2019-01-25T07:58:05.018Z,38.17
2019-01-25T08:03:01.009Z,39.60
2019-01-25T08:07:56.371Z,40.93
2019-01-25T08:12:51.722Z,41.20
2019-01-25T08:17:49.070Z,38.83
2019-01-25T08:22:46.517Z,39.90
2019-01-25T08:27:43.219Z,39.43
2019-01-25T08:32:37.906Z,38.80
2019-01-25T08:37:32.480Z,40.07
2019-01-25T08:42:28.301Z,39.47
2019-01-25T08:47:22.660Z,38.30
2019-01-25T08:52:18.177Z,40.60
2019-01-25T08:57:13.605Z,40.17
2019-01-25T09:02:09.688Z,38.87
2019-01-25T09:07:05.494Z,38.80
2019-01-25T09:12:00.447Z,51.40
2019-01-25T09:16:55.557Z,40.23
2019-01-25T09:21:50.303Z,42.77
2019-01-25T09:26:53.336Z,40.07
2019-01-25T09:31:47.616Z,35.73
2019-01-25T09:36:43.583Z,36.73
2019-01-25T09:41:39.596Z,36.07
2019-01-25T09:46:35.450Z,37.27
2019-01-25T09:51:29.741Z,37.50
2019-01-25T09:56:26.101Z,33.37
2019-01-25T10:01:40.248Z,31.40
2019-01-25T10:06:35.323Z,33.63
2019-01-25T10:11:32.759Z,30.47
2019-01-25T10:16:27.721Z,31.20
2019-01-25T10:21:22.667Z,34.80
2019-01-25T10:26:17.862Z,35.10
2019-01-25T10:31:13.333Z,25.13
2019-01-25T10:36:10.927Z,25.90
2019-01-25T10:41:08.747Z,29.73
2019-01-25T10:46:07.284Z,35.93
2019-01-25T10:51:01.805Z,38.77
2019-01-25T10:55:57.968Z,40.13
2019-01-25T11:00:57.255Z,40.37
2019-01-25T11:05:57.332Z,32.47
2019-01-25T11:10:52.857Z,33.83
2019-01-25T11:15:47.774Z,33.47
2019-01-25T11:20:43.448Z,34.07
2019-01-25T11:25:41.059Z,30.77
2019-01-25T11:30:38.530Z,29.40
2019-01-25T11:35:37.499Z,36.58
2019-01-25T11:40:40.099Z,33.17
2019-01-25T11:45:37.104Z,35.43
2019-01-25T11:50:34.454Z,41.07
2019-01-25T11:55:30.176Z,29.30
2019-01-25T12:00:32.013Z,28.43
2019-01-25T12:05:27.683Z,25.70
2019-01-25T12:10:25.808Z,26.57
2019-01-25T12:15:20.056Z,21.97
2019-01-25T12:20:20.455Z,21.37
2019-01-25T12:25:14.828Z,19.70
2019-01-25T12:30:27.504Z,25.53
2019-01-25T12:35:22.700Z,22.70
2019-01-25T12:40:19.597Z,23.03
2019-01-25T12:45:19.687Z,23.87
2019-01-25T12:50:18.514Z,30.37
2019-01-25T12:55:16.255Z,26.30
2019-01-25T13:00:14.143Z,24.67
2019-01-25T13:05:13.631Z,29.90
2019-01-25T13:10:12.355Z,26.43
2019-01-25T13:15:08.173Z,26.90
2019-01-25T13:20:04.733Z,27.67
2019-01-25T13:25:00.974Z,27.63
2019-01-25T13:29:55.177Z,28.30
2019-01-25T13:34:50.649Z,26.53
2019-01-25T13:39:45.110Z,30.53
2019-01-25T13:44:40.739Z,28.03
2019-01-25T13:49:34.483Z,31.67
2019-01-25T13:54:29.740Z,31.07
2019-01-25T13:59:24.946Z,28.47
2019-01-25T14:04:22.416Z,30.67
2019-01-25T14:09:17.651Z,30.60
2019-01-25T14:14:12.009Z,29.70
2019-01-25T14:19:08.631Z,30.10
2019-01-25T14:24:06.461Z,32.67
2019-01-25T14:29:01.012Z,29.90
2019-01-25T14:33:56.143Z,38.20
2019-01-25T14:38:50.729Z,64.67
2019-01-25T14:43:46.106Z,30.63
2019-01-25T14:48:41.249Z,32.23
2019-01-25T14:53:36.994Z,31.87
2019-01-25T14:58:32.851Z,30.57
2019-01-25T15:03:29.498Z,32.20
2019-01-25T15:08:29.721Z,33.53
2019-01-25T15:13:26.113Z,35.50
2019-01-25T15:18:23.859Z,35.77
2019-01-25T15:23:19.865Z,35.47
2019-01-25T15:28:17.468Z,35.93
2019-01-25T15:33:12.605Z,37.90
2019-01-25T15:38:07.603Z,38.67
2019-01-25T15:43:05.897Z,37.57
2019-01-25T15:48:00.561Z,38.43
2019-01-25T15:52:55.444Z,41.73
2019-01-25T15:57:51.308Z,41.13
2019-01-25T16:02:47.697Z,39.90
2019-01-25T16:07:43.663Z,45.37
2019-01-25T16:12:38.880Z,37.70
2019-01-25T16:17:33.790Z,40.53
2019-01-25T16:22:27.976Z,39.10
2019-01-25T16:27:22.842Z,38.30
2019-01-25T16:32:19.758Z,38.43
2019-01-25T16:37:14.490Z,43.07
2019-01-25T16:42:09.889Z,39.67
2019-01-25T16:47:05.919Z,37.30
2019-01-25T16:52:00.124Z,37.90
2019-01-25T16:56:56.260Z,38.13
2019-01-25T17:01:50.366Z,38.57
2019-01-25T17:06:45.434Z,37.63
2019-01-25T17:11:42.816Z,36.97
2019-01-25T17:16:38.592Z,39.67
2019-01-25T17:21:35.087Z,38.23
2019-01-25T17:26:31.627Z,37.70
2019-01-25T17:31:26.041Z,39.40
2019-01-25T17:36:21.996Z,40.47
2019-01-25T17:41:17.706Z,40.33
2019-01-25T17:46:13.191Z,40.00
2019-01-25T17:51:10.002Z,42.60
2019-01-25T17:56:06.083Z,36.33
2019-01-25T18:01:05.344Z,29.83
2019-01-25T18:06:02.570Z,28.73
2019-01-25T18:10:57.898Z,25.07
2019-01-25T18:15:53.290Z,23.63
2019-01-25T18:20:48.667Z,27.90
2019-01-25T18:25:45.454Z,26.43
2019-01-25T18:30:46.907Z,21.50
2019-01-25T18:35:41.906Z,22.03
2019-01-25T18:40:36.307Z,18.87
2019-01-25T18:45:31.819Z,17.87
2019-01-25T18:50:26.002Z,18.93
2019-01-25T18:55:23.033Z,18.33
2019-01-25T19:00:22.480Z,19.37
2019-01-25T19:05:20.618Z,19.50
2019-01-25T19:10:27.182Z,19.57
2019-01-25T19:15:29.486Z,19.47
2019-01-25T19:20:30.647Z,22.20
2019-01-25T19:25:24.713Z,21.47
2019-01-25T19:30:26.363Z,21.00
2019-01-25T19:35:27.934Z,21.40
2019-01-25T19:40:26.715Z,21.77
2019-01-25T19:45:32.105Z,21.17
2019-01-25T19:50:23.956Z,21.30
2019-01-25T19:55:23.991Z,19.20
2019-01-25T20:00:38.262Z,20.93
2019-01-25T20:05:37.947Z,22.60
2019-01-25T20:10:38.131Z,20.47
2019-01-25T20:20:50.230Z,20.73
2019-01-25T20:25:43.315Z,20.47
2019-01-25T20:30:49.759Z,20.17
2019-01-25T20:35:42.106Z,19.67
2019-01-25T20:40:40.086Z,20.33
2019-01-25T20:45:45.132Z,18.87
2019-01-25T20:50:36.321Z,20.50
2019-01-25T20:55:34.767Z,20.77
2019-01-25T21:00:38.492Z,19.90
2019-01-25T21:05:37.131Z,19.97
2019-01-25T21:10:34.662Z,20.73
2019-01-25T21:15:36.887Z,20.50
2019-01-25T21:20:38.285Z,21.60
2019-01-25T21:25:35.438Z,20.73
2019-01-25T21:30:39.268Z,19.50
2019-01-25T21:35:42.999Z,18.63
2019-01-25T21:40:41.954Z,19.17
2019-01-25T21:45:43.304Z,20.93
2019-01-25T21:50:44.739Z,20.33
2019-01-25T21:55:46.298Z,18.80
2019-01-25T22:00:43.410Z,20.13
2019-01-25T22:05:42.831Z,19.87
2019-01-25T22:10:40.245Z,20.57
2019-01-25T22:15:40.091Z,19.73
2019-01-25T22:20:35.380Z,19.37
2019-01-25T22:25:29.498Z,19.83
2019-01-25T22:30:29.070Z,20.27
2019-01-25T22:35:25.181Z,20.60
2019-01-25T22:40:25.207Z,20.73
2019-01-25T22:45:24.547Z,22.20
2019-01-25T22:50:24.010Z,19.33
2019-01-25T22:55:19.776Z,28.87
2019-01-25T23:00:36.709Z,35.73
2019-01-25T23:05:39.895Z,21.57
2019-01-25T23:10:34.523Z,20.83
2019-01-25T23:15:29.132Z,20.93
2019-01-25T23:20:27.567Z,22.00
2019-01-25T23:25:22.032Z,21.57
2019-01-25T23:30:17.207Z,26.97
2019-01-25T23:35:14.224Z,25.77
2019-01-25T23:40:11.381Z,23.63
2019-01-25T23:45:08.270Z,22.70
2019-01-25T23:50:03.035Z,23.33
2019-01-25T23:54:58.766Z,21.33
2019-01-25T23:59:53.390Z,21.37
